sensor_id;sensor_type;location;lat;lon;timestamp;pressure;altitude;pressure_sealevel;temperature;humidity
19797;BME280;10058;57.654;12.044;2022-10-18T04:30:35;101476.88;;;13.52;100.00
19797;BME280;10058;57.654;12.044;2022-10-18T04:33:02;101476.72;;;13.46;100.00
19797;BME280;10058;57.654;12.044;2022-10-18T04:35:36;101454.66;;;13.48;100.00
19797;BME280;10058;57.654;12.044;2022-10-18T04:40:58;101459.19;;;13.52;100.00
19797;BME280;10058;57.654;12.044;2022-10-18T04:43:27;101466.25;;;13.52;100.00
19797;BME280;10058;57.654;12.044;2022-10-18T04:45:59;101462.06;;;13.60;100.00
19797;BME280;10058;57.654;12.044;2022-10-18T04:48:33;101467.91;;;13.47;100.00
19797;BME280;10058;57.654;12.044;2022-10-18T04:50:59;101459.22;;;13.54;100.00
19797;BME280;10058;57.654;12.044;2022-10-18T04:53:39;101476.81;;;13.49;100.00
19797;BME280;10058;57.654;12.044;2022-10-18T04:56:06;101474.16;;;13.49;100.00
19797;BME280;10058;57.654;12.044;2022-10-18T04:58:40;101473.44;;;13.56;100.00
19797;BME280;10058;57.654;12.044;2022-10-18T05:01:13;101471.41;;;13.46;100.00
19797;BME280;10058;57.654;12.044;2022-10-18T05:03:40;101464.44;;;13.51;100.00
19797;BME280;10058;57.654;12.044;2022-10-18T05:06:05;101468.66;;;13.43;100.00
19797;BME280;10058;57.654;12.044;2022-10-18T05:08:34;101453.59;;;13.42;100.00
19797;BME280;10058;57.654;12.044;2022-10-18T05:13:46;101450.91;;;13.40;100.00
19797;BME280;10058;57.654;12.044;2022-10-18T05:16:13;101450.09;;;13.43;100.00
19797;BME280;10058;57.654;12.044;2022-10-18T05:18:40;101458.09;;;13.44;100.00
19797;BME280;10058;57.654;12.044;2022-10-18T05:21:26;101464.88;;;13.33;100.00
19797;BME280;10058;57.654;12.044;2022-10-18T05:24:01;101468.63;;;13.41;100.00
19797;BME280;10058;57.654;12.044;2022-10-18T05:26:27;101459.53;;;13.32;100.00
19797;BME280;10058;57.654;12.044;2022-10-18T05:28:55;101447.16;;;13.34;100.00
19797;BME280;10058;57.654;12.044;2022-10-18T05:31:33;101452.59;;;13.38;100.00
19797;BME280;10058;57.654;12.044;2022-10-18T05:34:13;101456.06;;;13.36;100.00
19797;BME280;10058;57.654;12.044;2022-10-18T05:36:44;101470.34;;;13.39;100.00
19797;BME280;10058;57.654;12.044;2022-10-18T05:39:21;101457.00;;;13.38;100.00
19797;BME280;10058;57.654;12.044;2022-10-18T05:41:50;101449.91;;;13.37;100.00
19797;BME280;10058;57.654;12.044;2022-10-18T05:44:17;101453.38;;;13.33;100.00
19797;BME280;10058;57.654;12.044;2022-10-18T05:49:27;101464.78;;;13.30;100.00
19797;BME280;10058;57.654;12.044;2022-10-18T05:51:52;101464.84;;;13.32;100.00
19797;BME280;10058;57.654;12.044;2022-10-18T05:54:27;101461.22;;;13.30;100.00
19797;BME280;10058;57.654;12.044;2022-10-18T05:56:52;101452.56;;;13.37;100.00
19797;BME280;10058;57.654;12.044;2022-10-18T05:59:19;101462.22;;;13.35;100.00
19797;BME280;10058;57.654;12.044;2022-10-18T06:01:46;101459.53;;;13.32;100.00
19797;BME280;10058;57.654;12.044;2022-10-18T06:04:19;101459.47;;;13.30;100.00
19797;BME280;10058;57.654;12.044;2022-10-18T06:06:59;101468.38;;;13.32;100.00
19797;BME280;10058;57.654;12.044;2022-10-18T06:09:31;101469.44;;;13.39;100.00
19797;BME280;10058;57.654;12.044;2022-10-18T06:11:57;101473.69;;;13.32;100.00
19797;BME280;10058;57.654;12.044;2022-10-18T06:14:23;101467.41;;;13.29;100.00
19797;BME280;10058;57.654;12.044;2022-10-18T06:16:48;101460.38;;;13.31;100.00
19797;BME280;10058;57.654;12.044;2022-10-18T06:19:28;101463.03;;;13.31;100.00
19797;BME280;10058;57.654;12.044;2022-10-18T06:22:02;101465.84;;;13.37;100.00
19797;BME280;10058;57.654;12.044;2022-10-18T06:24:28;101464.84;;;13.32;100.00
19797;BME280;10058;57.654;12.044;2022-10-18T06:26:55;101470.25;;;13.36;100.00
19797;BME280;10058;57.654;12.044;2022-10-18T06:29:30;101465.69;;;13.31;100.00
19797;BME280;10058;57.654;12.044;2022-10-18T06:31:56;101435.19;;;13.16;100.00
19797;BME280;10058;57.654;12.044;2022-10-18T06:34:23;101454.16;;;13.30;100.00
19797;BME280;10058;57.654;12.044;2022-10-18T06:39:44;101445.16;;;13.25;100.00
19797;BME280;10058;57.654;12.044;2022-10-18T06:42:22;101463.97;;;13.33;100.00
19797;BME280;10058;57.654;12.044;2022-10-18T06:47:38;101460.13;;;13.21;100.00
19797;BME280;10058;57.654;12.044;2022-10-18T06:50:15;101455.59;;;13.19;100.00
19797;BME280;10058;57.654;12.044;2022-10-18T06:52:47;101456.16;;;13.39;100.00
19797;BME280;10058;57.654;12.044;2022-10-18T06:58:14;101456.88;;;13.32;100.00
19797;BME280;10058;57.654;12.044;2022-10-18T07:00:44;101452.69;;;13.41;100.00
19797;BME280;10058;57.654;12.044;2022-10-18T07:06:19;101446.31;;;13.35;100.00
19797;BME280;10058;57.654;12.044;2022-10-18T07:13:58;101448.06;;;13.33;100.00
19797;BME280;10058;57.654;12.044;2022-10-18T07:16:31;101456.81;;;13.30;100.00
19797;BME280;10058;57.654;12.044;2022-10-18T07:19:08;101448.09;;;13.36;100.00
19797;BME280;10058;57.654;12.044;2022-10-18T07:21:45;101450.84;;;13.39;100.00
19797;BME280;10058;57.654;12.044;2022-10-18T07:24:12;101453.38;;;13.33;100.00
19797;BME280;10058;57.654;12.044;2022-10-18T07:26:39;101449.28;;;13.45;100.00
19797;BME280;10058;57.654;12.044;2022-10-18T07:31:40;101427.50;;;13.60;100.00
19797;BME280;10058;57.654;12.044;2022-10-18T07:34:21;101422.38;;;13.66;100.00
19797;BME280;10058;57.654;12.044;2022-10-18T07:39:41;101466.97;;;13.79;100.00
19797;BME280;10058;57.654;12.044;2022-10-18T07:42:11;101467.72;;;13.74;100.00
19797;BME280;10058;57.654;12.044;2022-10-18T07:44:39;101466.41;;;13.58;100.00
19797;BME280;10058;57.654;12.044;2022-10-18T07:50:05;101464.88;;;13.66;100.00
19797;BME280;10058;57.654;12.044;2022-10-18T07:55:19;101481.78;;;13.37;100.00
19797;BME280;10058;57.654;12.044;2022-10-18T08:00:18;101467.81;;;13.44;100.00
19797;BME280;10058;57.654;12.044;2022-10-18T08:05:41;101473.03;;;13.41;100.00
19797;BME280;10058;57.654;12.044;2022-10-18T08:08:07;101471.50;;;13.49;100.00
19797;BME280;10058;57.654;12.044;2022-10-18T08:10:33;101483.94;;;13.50;100.00
19797;BME280;10058;57.654;12.044;2022-10-18T08:13:07;101475.06;;;13.51;100.00
19797;BME280;10058;57.654;12.044;2022-10-18T08:15:39;101469.84;;;13.54;100.00
19797;BME280;10058;57.654;12.044;2022-10-18T08:18:06;101467.28;;;13.57;100.00
19797;BME280;10058;57.654;12.044;2022-10-18T08:20:35;101462.22;;;13.66;100.00
19797;BME280;10058;57.654;12.044;2022-10-18T08:23:02;101466.03;;;13.77;100.00
19797;BME280;10058;57.654;12.044;2022-10-18T08:25:42;101471.78;;;13.59;100.00
19797;BME280;10058;57.654;12.044;2022-10-18T08:28:16;101470.75;;;13.54;100.00
19797;BME280;10058;57.654;12.044;2022-10-18T08:30:41;101487.75;;;13.61;100.00
19797;BME280;10058;57.654;12.044;2022-10-18T08:33:18;101475.06;;;13.51;100.00
19797;BME280;10058;57.654;12.044;2022-10-18T08:36:00;101479.06;;;13.35;100.00
19797;BME280;10058;57.654;12.044;2022-10-18T08:38:41;101494.94;;;13.34;100.00
19797;BME280;10058;57.654;12.044;2022-10-18T08:46:40;101486.53;;;13.48;100.00
19797;BME280;10058;57.654;12.044;2022-10-18T08:49:06;101494.97;;;13.65;100.00
19797;BME280;10058;57.654;12.044;2022-10-18T08:51:43;101493.06;;;13.61;100.00
19797;BME280;10058;57.654;12.044;2022-10-18T08:57:12;101470.19;;;13.66;100.00
19797;BME280;10058;57.654;12.044;2022-10-18T08:59:44;101462.66;;;13.83;100.00
19797;BME280;10058;57.654;12.044;2022-10-18T09:05:47;101447.97;;;13.99;100.00
19797;BME280;10058;57.654;12.044;2022-10-18T09:07:58;101466.72;;;13.70;100.00
19797;BME280;10058;57.654;12.044;2022-10-18T09:16:18;101447.97;;;13.63;100.00
19797;BME280;10058;57.654;12.044;2022-10-18T09:18:54;101449.63;;;13.59;100.00
19797;BME280;10058;57.654;12.044;2022-10-18T09:21:29;101459.22;;;13.54;100.00
19797;BME280;10058;57.654;12.044;2022-10-18T09:26:43;101463.91;;;13.30;100.00
19797;BME280;10058;57.654;12.044;2022-10-18T09:34:36;101487.03;;;13.35;100.00
19797;BME280;10058;57.654;12.044;2022-10-18T09:37:11;101491.53;;;13.38;100.00
19797;BME280;10058;57.654;12.044;2022-10-18T09:39:39;101496.16;;;13.13;100.00
19797;BME280;10058;57.654;12.044;2022-10-18T09:42:22;101500.03;;;13.24;100.00
19797;BME280;10058;57.654;12.044;2022-10-18T09:45:04;101508.09;;;13.28;100.00
19797;BME280;10058;57.654;12.044;2022-10-18T09:55:48;101487.38;;;13.80;100.00
19797;BME280;10058;57.654;12.044;2022-10-18T10:00:56;101483.66;;;13.74;100.00
19797;BME280;10058;57.654;12.044;2022-10-18T10:03:25;101474.19;;;13.83;100.00
19797;BME280;10058;57.654;12.044;2022-10-18T10:09:04;101486.59;;;13.84;100.00
19797;BME280;10058;57.654;12.044;2022-10-18T10:11:36;101487.22;;;14.09;100.00
19797;BME280;10058;57.654;12.044;2022-10-18T10:14:09;101471.09;;;14.03;100.00
19797;BME280;10058;57.654;12.044;2022-10-18T10:16:49;101469.00;;;13.89;100.00
19797;BME280;10058;57.654;12.044;2022-10-18T10:22:14;101465.72;;;14.00;100.00
19797;BME280;10058;57.654;12.044;2022-10-18T10:24:51;101450.44;;;14.27;100.00
19797;BME280;10058;57.654;12.044;2022-10-18T10:27:52;101458.41;;;14.27;100.00
19797;BME280;10058;57.654;12.044;2022-10-18T10:32:58;101441.22;;;14.13;100.00
19797;BME280;10058;57.654;12.044;2022-10-18T10:37:50;101429.38;;;13.99;100.00
19797;BME280;10058;57.654;12.044;2022-10-18T10:40:21;101433.75;;;13.97;100.00
19797;BME280;10058;57.654;12.044;2022-10-18T10:42:59;101437.47;;;14.05;100.00
19797;BME280;10058;57.654;12.044;2022-10-18T10:48:15;101441.03;;;13.69;100.00
19797;BME280;10058;57.654;12.044;2022-10-18T10:54:00;101449.78;;;14.00;100.00
19797;BME280;10058;57.654;12.044;2022-10-18T11:04:39;101436.56;;;14.40;100.00
19797;BME280;10058;57.654;12.044;2022-10-18T11:12:52;101417.09;;;14.41;100.00
19797;BME280;10058;57.654;12.044;2022-10-18T12:39:43;101370.81;;;14.33;100.00
19797;BME280;10058;57.654;12.044;2022-10-18T12:42:20;101374.03;;;14.20;100.00
19797;BME280;10058;57.654;12.044;2022-10-18T12:47:34;101364.91;;;14.09;100.00
19797;BME280;10058;57.654;12.044;2022-10-18T12:50:20;101366.78;;;14.13;100.00
19797;BME280;10058;57.654;12.044;2022-10-18T12:52:59;101354.03;;;13.97;100.00
19797;BME280;10058;57.654;12.044;2022-10-18T12:55:31;101361.63;;;14.19;100.00
19797;BME280;10058;57.654;12.044;2022-10-18T12:58:09;101340.44;;;14.23;100.00
19797;BME280;10058;57.654;12.044;2022-10-18T13:05:59;101346.19;;;14.04;100.00
19797;BME280;10058;57.654;12.044;2022-10-18T13:13:53;101336.63;;;14.11;100.00
19797;BME280;10058;57.654;12.044;2022-10-18T13:16:35;101345.44;;;14.10;100.00
19797;BME280;10058;57.654;12.044;2022-10-18T13:32:31;101400.47;;;13.42;100.00
19797;BME280;10058;57.654;12.044;2022-10-18T13:34:59;101407.81;;;13.50;100.00
19797;BME280;10058;57.654;12.044;2022-10-18T13:37:25;101411.78;;;13.33;100.00
19797;BME280;10058;57.654;12.044;2022-10-18T13:45:52;101427.97;;;13.44;100.00
19797;BME280;10058;57.654;12.044;2022-10-18T13:53:38;101437.63;;;13.40;100.00
19797;BME280;10058;57.654;12.044;2022-10-18T13:56:17;101438.34;;;13.35;100.00
19797;BME280;10058;57.654;12.044;2022-10-18T13:59:02;101443.06;;;13.45;100.00
19797;BME280;10058;57.654;12.044;2022-10-18T14:07:14;101445.25;;;13.28;100.00
19797;BME280;10058;57.654;12.044;2022-10-18T14:09:47;101444.34;;;13.28;100.00
19797;BME280;10058;57.654;12.044;2022-10-18T14:17:37;101441.38;;;13.15;100.00
19797;BME280;10058;57.654;12.044;2022-10-18T14:25:39;101456.31;;;13.13;100.00
19797;BME280;10058;57.654;12.044;2022-10-18T14:31:05;101457.19;;;13.12;100.00
19797;BME280;10058;57.654;12.044;2022-10-18T14:41:30;101449.41;;;13.18;100.00
19797;BME280;10058;57.654;12.044;2022-10-18T14:44:30;101456.31;;;13.13;100.00
19797;BME280;10058;57.654;12.044;2022-10-18T14:49:44;101465.19;;;12.84;100.00
19797;BME280;10058;57.654;12.044;2022-10-18T14:52:26;101455.41;;;12.83;100.00
19797;BME280;10058;57.654;12.044;2022-10-18T14:54:54;101452.91;;;12.87;100.00
19797;BME280;10058;57.654;12.044;2022-10-18T14:57:31;101450.06;;;12.80;100.00
19797;BME280;10058;57.654;12.044;2022-10-18T14:59:57;101444.75;;;12.80;100.00
19797;BME280;10058;57.654;12.044;2022-10-18T15:02:27;101437.00;;;12.87;100.00
19797;BME280;10058;57.654;12.044;2022-10-18T15:05:13;101440.25;;;12.77;100.00
19797;BME280;10058;57.654;12.044;2022-10-18T15:07:42;101445.56;;;12.77;100.00
19797;BME280;10058;57.654;12.044;2022-10-18T15:13:12;101465.78;;;12.74;100.00
19797;BME280;10058;57.654;12.044;2022-10-18T15:15:37;101470.63;;;12.59;100.00
19797;BME280;10058;57.654;12.044;2022-10-18T15:18:18;101464.19;;;12.50;100.00
19797;BME280;10058;57.654;12.044;2022-10-18T15:20:44;101473.94;;;12.51;100.00
19797;BME280;10058;57.654;12.044;2022-10-18T15:23:22;101475.13;;;12.61;100.00
19797;BME280;10058;57.654;12.044;2022-10-18T15:28:42;101483.25;;;12.39;100.00
19797;BME280;10058;57.654;12.044;2022-10-18T15:31:28;101471.56;;;12.32;100.00
19797;BME280;10058;57.654;12.044;2022-10-18T15:36:36;101464.88;;;12.16;100.00
19797;BME280;10058;57.654;12.044;2022-10-18T15:39:03;101474.06;;;12.01;100.00
19797;BME280;10058;57.654;12.044;2022-10-18T15:54:56;101545.38;;;11.93;100.00
19797;BME280;10058;57.654;12.044;2022-10-18T15:57:30;101556.31;;;11.78;100.00
19797;BME280;10058;57.654;12.044;2022-10-18T16:00:00;101564.03;;;11.72;100.00
19797;BME280;10058;57.654;12.044;2022-10-18T16:02:29;101571.06;;;11.72;100.00
19797;BME280;10058;57.654;12.044;2022-10-18T16:07:35;101581.31;;;11.63;100.00
19797;BME280;10058;57.654;12.044;2022-10-18T16:10:00;101566.78;;;11.51;100.00
19797;BME280;10058;57.654;12.044;2022-10-18T16:12:26;101576.06;;;11.16;100.00
19797;BME280;10058;57.654;12.044;2022-10-18T16:15:01;101585.94;;;11.21;100.00
19797;BME280;10058;57.654;12.044;2022-10-18T16:17:29;101586.53;;;11.13;100.00
19797;BME280;10058;57.654;12.044;2022-10-18T16:19:56;101597.75;;;11.06;100.00
19797;BME280;10058;57.654;12.044;2022-10-18T16:22:22;101593.88;;;10.98;100.00
19797;BME280;10058;57.654;12.044;2022-10-18T16:24:47;101596.91;;;10.85;100.00
19797;BME280;10058;57.654;12.044;2022-10-18T16:27:12;101605.94;;;10.90;100.00
19797;BME280;10058;57.654;12.044;2022-10-18T16:29:38;101605.69;;;10.84;100.00
19797;BME280;10058;57.654;12.044;2022-10-18T16:32:05;101604.72;;;10.82;100.00
19797;BME280;10058;57.654;12.044;2022-10-18T16:34:36;101625.44;;;10.71;100.00
19797;BME280;10058;57.654;12.044;2022-10-18T16:37:02;101635.13;;;10.71;100.00
19797;BME280;10058;57.654;12.044;2022-10-18T16:39:27;101642.72;;;10.63;100.00
19797;BME280;10058;57.654;12.044;2022-10-18T16:42:04;101660.13;;;10.58;100.00
19797;BME280;10058;57.654;12.044;2022-10-18T16:44:29;101670.06;;;10.64;100.00
19797;BME280;10058;57.654;12.044;2022-10-18T16:46:54;101667.69;;;10.70;100.00
19797;BME280;10058;57.654;12.044;2022-10-18T16:49:21;101668.75;;;10.75;100.00
19797;BME280;10058;57.654;12.044;2022-10-18T16:51:50;101663.72;;;10.81;100.00
19797;BME280;10058;57.654;12.044;2022-10-18T16:54:15;101663.84;;;10.84;100.00
19797;BME280;10058;57.654;12.044;2022-10-18T16:56:41;101670.69;;;10.79;100.00
19797;BME280;10058;57.654;12.044;2022-10-18T16:59:06;101676.47;;;10.91;100.00
19797;BME280;10058;57.654;12.044;2022-10-18T17:01:32;101672.88;;;10.89;100.00
19797;BME280;10058;57.654;12.044;2022-10-18T17:03:58;101681.88;;;10.94;100.00
19797;BME280;10058;57.654;12.044;2022-10-18T17:08:54;101693.00;;;11.06;100.00
19797;BME280;10058;57.654;12.044;2022-10-18T17:11:21;101691.19;;;11.05;100.00
19797;BME280;10058;57.654;12.044;2022-10-18T17:13:46;101685.75;;;11.02;100.00
19797;BME280;10058;57.654;12.044;2022-10-18T17:19:06;101703.19;;;10.97;100.00
19797;BME280;10058;57.654;12.044;2022-10-18T17:21:33;101703.31;;;11.00;100.00
19797;BME280;10058;57.654;12.044;2022-10-18T17:23:58;101699.69;;;10.98;100.00
19797;BME280;10058;57.654;12.044;2022-10-18T17:26:39;101706.88;;;11.01;100.00
19797;BME280;10058;57.654;12.044;2022-10-18T17:29:05;101721.50;;;10.93;100.00
19797;BME280;10058;57.654;12.044;2022-10-18T17:31:32;101735.53;;;10.90;100.00
19797;BME280;10058;57.654;12.044;2022-10-18T17:33:57;101747.06;;;10.92;100.00
19797;BME280;10058;57.654;12.044;2022-10-18T17:36:28;101753.22;;;11.13;100.00
19797;BME280;10058;57.654;12.044;2022-10-18T17:38:59;101751.06;;;11.03;100.00
19797;BME280;10058;57.654;12.044;2022-10-18T17:41:24;101745.06;;;11.07;100.00
19797;BME280;10058;57.654;12.044;2022-10-18T17:43:50;101749.50;;;11.08;100.00
19797;BME280;10058;57.654;12.044;2022-10-18T17:49:05;101767.91;;;11.05;100.00
19797;BME280;10058;57.654;12.044;2022-10-18T17:51:39;101776.06;;;11.11;100.00
19797;BME280;10058;57.654;12.044;2022-10-18T17:54:05;101766.59;;;11.16;100.00
19797;BME280;10058;57.654;12.044;2022-10-18T17:56:39;101776.59;;;11.24;100.00
19797;BME280;10058;57.654;12.044;2022-10-18T17:59:04;101778.56;;;11.07;100.00
19797;BME280;10058;57.654;12.044;2022-10-18T18:01:33;101784.84;;;11.10;100.00
19797;BME280;10058;57.654;12.044;2022-10-18T18:09:49;101815.19;;;11.19;100.00
19797;BME280;10058;57.654;12.044;2022-10-18T18:12:17;101813.38;;;11.18;100.00
19797;BME280;10058;57.654;12.044;2022-10-18T18:14:59;101816.50;;;11.07;100.00
19797;BME280;10058;57.654;12.044;2022-10-18T18:17:24;101823.34;;;11.23;100.00
19797;BME280;10058;57.654;12.044;2022-10-18T18:22:45;101825.78;;;11.19;100.00
19797;BME280;10058;57.654;12.044;2022-10-18T18:25:14;101831.06;;;11.19;100.00
19797;BME280;10058;57.654;12.044;2022-10-18T18:27:40;101841.38;;;11.12;100.00
19797;BME280;10058;57.654;12.044;2022-10-18T18:33:02;101869.16;;;11.01;100.00
19797;BME280;10058;57.654;12.044;2022-10-18T18:35:29;101882.53;;;10.85;100.00
19797;BME280;10058;57.654;12.044;2022-10-18T18:37:55;101892.00;;;10.80;100.00
19797;BME280;10058;57.654;12.044;2022-10-18T18:40:20;101910.81;;;10.86;100.00
19797;BME280;10058;57.654;12.044;2022-10-18T18:45:37;101938.41;;;10.93;100.00
19797;BME280;10058;57.654;12.044;2022-10-18T18:48:05;101939.22;;;10.90;100.00
19797;BME280;10058;57.654;12.044;2022-10-18T18:53:03;101955.47;;;10.80;100.00
19797;BME280;10058;57.654;12.044;2022-10-18T18:55:41;101969.59;;;10.80;100.00
19797;BME280;10058;57.654;12.044;2022-10-18T18:58:07;101972.22;;;10.42;100.00
19797;BME280;10058;57.654;12.044;2022-10-18T19:00:39;101974.44;;;10.33;100.00
19797;BME280;10058;57.654;12.044;2022-10-18T19:03:05;101972.25;;;10.24;100.00
19797;BME280;10058;57.654;12.044;2022-10-18T19:05:37;101978.03;;;10.17;100.00
19797;BME280;10058;57.654;12.044;2022-10-18T19:08:03;101979.84;;;10.18;100.00
19797;BME280;10058;57.654;12.044;2022-10-18T19:10:28;101978.56;;;10.10;100.00
19797;BME280;10058;57.654;12.044;2022-10-18T19:12:54;101976.75;;;10.09;100.00
19797;BME280;10058;57.654;12.044;2022-10-18T19:15:33;101972.13;;;10.05;100.00
19797;BME280;10058;57.654;12.044;2022-10-18T19:18:01;101966.00;;;9.87;100.00
19797;BME280;10058;57.654;12.044;2022-10-18T19:20:39;101968.81;;;9.73;100.00
19797;BME280;10058;57.654;12.044;2022-10-18T19:23:08;101954.63;;;9.54;100.00
19797;BME280;10058;57.654;12.044;2022-10-18T19:25:36;101938.66;;;9.51;100.00
19797;BME280;10058;57.654;12.044;2022-10-18T19:28:12;101920.25;;;9.52;100.00
19797;BME280;10058;57.654;12.044;2022-10-18T19:30:45;101918.13;;;9.45;100.00
19797;BME280;10058;57.654;12.044;2022-10-18T19:33:12;101888.25;;;9.28;100.00
19797;BME280;10058;57.654;12.044;2022-10-18T19:35:39;101912.38;;;9.36;100.00
19797;BME280;10058;57.654;12.044;2022-10-18T19:38:06;101907.88;;;9.33;100.00
19797;BME280;10058;57.654;12.044;2022-10-18T19:40:31;101904.34;;;9.33;100.00
19797;BME280;10058;57.654;12.044;2022-10-18T19:43:08;101917.66;;;9.36;100.00
19797;BME280;10058;57.654;12.044;2022-10-18T19:45:40;101917.38;;;9.30;100.00
19797;BME280;10058;57.654;12.044;2022-10-18T19:48:05;101924.56;;;9.16;100.00
19797;BME280;10058;57.654;12.044;2022-10-18T19:50:38;101929.53;;;9.10;100.00
19797;BME280;10058;57.654;12.044;2022-10-18T19:53:13;101931.28;;;8.93;100.00
19797;BME280;10058;57.654;12.044;2022-10-18T19:55:38;101938.22;;;8.91;100.00
19797;BME280;10058;57.654;12.044;2022-10-18T19:58:04;101945.13;;;8.89;100.00
19797;BME280;10058;57.654;12.044;2022-10-18T20:00:30;101940.38;;;8.82;100.00
19797;BME280;10058;57.654;12.044;2022-10-18T20:05:29;101959.88;;;8.86;100.00
19797;BME280;10058;57.654;12.044;2022-10-18T20:07:54;101965.88;;;8.83;100.00
19797;BME280;10058;57.654;12.044;2022-10-18T20:10:26;101975.38;;;8.80;100.00
19797;BME280;10058;57.654;12.044;2022-10-18T20:12:51;101971.00;;;8.80;100.00
19797;BME280;10058;57.654;12.044;2022-10-18T20:15:34;101985.22;;;8.67;100.00
19797;BME280;10058;57.654;12.044;2022-10-18T20:18:00;101999.19;;;8.65;100.00
19797;BME280;10058;57.654;12.044;2022-10-18T20:20:26;102002.13;;;8.71;100.00
19797;BME280;10058;57.654;12.044;2022-10-18T20:22:51;102005.75;;;8.57;100.00
19797;BME280;10058;57.654;12.044;2022-10-18T20:25:18;102000.72;;;8.45;100.00
19797;BME280;10058;57.654;12.044;2022-10-18T20:27:44;102017.09;;;8.56;100.00
19797;BME280;10058;57.654;12.044;2022-10-18T20:30:12;102022.19;;;8.53;100.00
19797;BME280;10058;57.654;12.044;2022-10-18T20:32:37;102020.38;;;8.52;100.00
19797;BME280;10058;57.654;12.044;2022-10-18T20:35:09;102035.53;;;8.40;100.00
19797;BME280;10058;57.654;12.044;2022-10-18T20:37:34;102040.97;;;8.43;100.00
19797;BME280;10058;57.654;12.044;2022-10-18T20:40:00;102035.88;;;8.46;100.00
19797;BME280;10058;57.654;12.044;2022-10-18T20:42:25;102036.69;;;8.45;100.00
19797;BME280;10058;57.654;12.044;2022-10-18T20:44:54;102037.97;;;8.36;100.00
19797;BME280;10058;57.654;12.044;2022-10-18T20:47:19;102046.06;;;8.25;100.00
19797;BME280;10058;57.654;12.044;2022-10-18T20:49:45;102053.50;;;8.17;100.00
19797;BME280;10058;57.654;12.044;2022-10-18T20:52:10;102056.97;;;8.16;100.00
19797;BME280;10058;57.654;12.044;2022-10-18T20:57:21;102051.53;;;8.13;100.00
19797;BME280;10058;57.654;12.044;2022-10-18T21:03:02;102069.78;;;8.10;100.00
19797;BME280;10058;57.654;12.044;2022-10-18T21:05:35;102072.25;;;8.07;100.00
19797;BME280;10058;57.654;12.044;2022-10-18T21:08:03;102071.72;;;8.13;100.00
19797;BME280;10058;57.654;12.044;2022-10-18T21:10:36;102079.16;;;8.05;100.00
19797;BME280;10058;57.654;12.044;2022-10-18T21:13:01;102080.78;;;8.03;100.00
19797;BME280;10058;57.654;12.044;2022-10-18T21:15:34;102079.88;;;8.02;100.00
19797;BME280;10058;57.654;12.044;2022-10-18T21:18:02;102081.16;;;7.94;100.00
19797;BME280;10058;57.654;12.044;2022-10-18T21:20:29;102079.44;;;7.95;100.00
19797;BME280;10058;57.654;12.044;2022-10-18T21:22:54;102094.22;;;7.93;100.00
19797;BME280;10058;57.654;12.044;2022-10-18T21:25:22;102104.00;;;7.81;100.00
19797;BME280;10058;57.654;12.044;2022-10-18T21:27:47;102107.13;;;7.74;100.00
19797;BME280;10058;57.654;12.044;2022-10-18T21:30:13;102113.19;;;7.73;100.00
19797;BME280;10058;57.654;12.044;2022-10-18T21:32:42;102120.91;;;7.69;100.00
19797;BME280;10058;57.654;12.044;2022-10-18T21:35:07;102111.00;;;7.80;100.00
19797;BME280;10058;57.654;12.044;2022-10-18T21:37:35;102122.72;;;7.71;100.00
19797;BME280;10058;57.654;12.044;2022-10-18T21:40:04;102130.91;;;7.75;100.00
19797;BME280;10058;57.654;12.044;2022-10-18T21:42:29;102129.78;;;7.72;100.00
19797;BME280;10058;57.654;12.044;2022-10-18T21:45:00;102133.03;;;7.67;100.00
19797;BME280;10058;57.654;12.044;2022-10-18T21:47:28;102142.13;;;7.73;100.00
19797;BME280;10058;57.654;12.044;2022-10-18T21:52:54;102148.50;;;7.61;100.00
19797;BME280;10058;57.654;12.044;2022-10-18T21:55:38;102158.00;;;7.59;100.00
19797;BME280;10058;57.654;12.044;2022-10-18T21:58:03;102154.97;;;7.53;100.00
19797;BME280;10058;57.654;12.044;2022-10-18T22:00:34;102161.06;;;7.52;100.00
19797;BME280;10058;57.654;12.044;2022-10-18T22:03:08;102168.66;;;7.48;100.00
19797;BME280;10058;57.654;12.044;2022-10-18T22:05:40;102178.38;;;7.49;100.00
19797;BME280;10058;57.654;12.044;2022-10-18T22:08:08;102187.63;;;7.42;100.00
19797;BME280;10058;57.654;12.044;2022-10-18T22:10:40;102192.69;;;7.39;100.00
19797;BME280;10058;57.654;12.044;2022-10-18T22:13:05;102205.03;;;7.40;100.00
19797;BME280;10058;57.654;12.044;2022-10-18T22:15:38;102213.81;;;7.41;100.00
19797;BME280;10058;57.654;12.044;2022-10-18T22:18:07;102215.53;;;7.40;100.00
19797;BME280;10058;57.654;12.044;2022-10-18T22:20:33;102211.09;;;7.39;100.00
19797;BME280;10058;57.654;12.044;2022-10-18T22:22:58;102214.09;;;7.45;100.00
19797;BME280;10058;57.654;12.044;2022-10-18T22:25:26;102217.56;;;7.44;100.00
19797;BME280;10058;57.654;12.044;2022-10-18T22:27:51;102220.59;;;7.37;100.00
19797;BME280;10058;57.654;12.044;2022-10-18T22:30:29;102221.53;;;7.38;100.00
19797;BME280;10058;57.654;12.044;2022-10-18T22:32:57;102230.03;;;7.33;100.00
19797;BME280;10058;57.654;12.044;2022-10-18T22:35:32;102223.84;;;7.33;100.00
19797;BME280;10058;57.654;12.044;2022-10-18T22:37:57;102224.19;;;7.24;100.00
19797;BME280;10058;57.654;12.044;2022-10-18T22:40:22;102221.47;;;7.23;100.00